Time;durP1;ratioP1;P1;durP2;ratioP2;P2;SDS_P1;SDS_P2;PMS_P1;PMS_P2;Temp;Humidity;BMP_temperature;BMP_pressure;BME280_temperature;BME280_humidity;BME280_pressure;Samples;Min_cycle;Max_cycle;Signal;HPM_P1;HPM_P2
2021/11/28 00:02:13;;;;;;;0.10;0.10;;;;;;;7.27;68.99;99556.03;5037226;28;20037;-87
2021/11/28 00:04:40;;;;;;;0.10;0.10;;;;;;;7.28;68.80;99565.69;5040587;28;20489;-86
2021/11/28 00:07:20;;;;;;;0.75;0.75;;;;;;;7.28;68.89;99565.69;5030429;28;20473;-87
2021/11/28 00:15:21;;;;;;;2.20;1.38;;;;;;;7.32;69.15;99573.53;5046810;28;20439;-85
2021/11/28 00:17:47;;;;;;;0.20;0.20;;;;;;;7.32;68.51;99574.38;5028885;28;20026;-87
2021/11/28 00:20:15;;;;;;;0.20;0.20;;;;;;;7.33;68.65;99573.47;5029078;28;20038;-84
2021/11/28 00:22:43;;;;;;;0.20;0.20;;;;;;;7.35;69.05;99578.69;5029271;28;20045;-84
2021/11/28 00:25:14;;;;;;;3.63;0.88;;;;;;;7.37;68.95;99579.53;5029041;28;20037;-84
2021/11/28 00:27:43;;;;;;;0.52;0.52;;;;;;;7.34;68.76;99580.47;5028927;28;20448;-83
2021/11/28 00:30:14;;;;;;;0.20;0.20;;;;;;;7.33;68.30;99584.00;5029118;28;20083;-84
2021/11/28 00:32:41;;;;;;;0.47;0.47;;;;;;;7.33;69.07;99586.66;5027799;28;20109;-84
2021/11/28 00:35:11;;;;;;;0.45;0.35;;;;;;;7.35;69.01;99591.88;5029056;28;20370;-83
2021/11/28 00:37:38;;;;;;;0.13;0.13;;;;;;;7.33;68.86;99584.00;5029859;28;20113;-84
2021/11/28 00:40:05;;;;;;;0.15;0.15;;;;;;;7.33;68.67;99594.56;5027861;28;20030;-83
2021/11/28 00:42:31;;;;;;;0.10;0.10;;;;;;;7.33;68.70;99591.03;5023467;28;20068;-84
2021/11/28 00:44:57;;;;;;;0.20;0.20;;;;;;;7.32;68.64;99595.44;5028516;28;20041;-84
2021/11/28 00:47:24;;;;;;;0.32;0.32;;;;;;;7.34;68.81;99596.28;5028477;28;20033;-84
2021/11/28 00:50:03;;;;;;;0.15;0.15;;;;;;;7.34;68.94;99606.81;5028972;28;20034;-84
2021/11/28 00:52:31;;;;;;;0.10;0.10;;;;;;;7.35;68.65;99605.94;5027489;28;20079;-86
2021/11/28 00:54:58;;;;;;;0.35;0.35;;;;;;;7.38;69.03;99602.34;5025901;28;20038;-85
2021/11/28 00:57:26;;;;;;;1.00;1.00;;;;;;;7.33;68.59;99613.00;5028738;28;20097;-86
2021/11/28 00:59:52;;;;;;;0.30;0.30;;;;;;;7.34;68.67;99601.56;5026034;28;20124;-85
2021/11/28 01:02:19;;;;;;;0.20;0.20;;;;;;;7.34;68.48;99600.66;5028354;28;20030;-85
2021/11/28 01:04:46;;;;;;;0.10;0.10;;;;;;;7.32;68.76;99619.16;5027418;28;20044;-86
2021/11/28 01:07:13;;;;;;;0.10;0.10;;;;;;;7.32;68.82;99619.16;5028377;28;20106;-86
2021/11/28 01:09:39;;;;;;;0.20;0.20;;;;;;;7.30;68.23;99620.97;5028474;28;20029;-86
2021/11/28 01:12:06;;;;;;;0.75;0.75;;;;;;;7.31;68.58;99627.97;5028394;28;20044;-86
2021/11/28 01:14:33;;;;;;;1.05;1.05;;;;;;;7.32;68.58;99627.06;5026659;28;20058;-85
2021/11/28 01:17:00;;;;;;;0.32;0.32;;;;;;;7.30;68.53;99628.88;5027553;28;20036;-86
2021/11/28 01:19:26;;;;;;;0.10;0.10;;;;;;;7.30;68.25;99647.31;5023793;28;20048;-85
2021/11/28 01:22:00;;;;;;;1.55;1.45;;;;;;;7.32;68.47;99642.88;5028296;28;20247;-86
2021/11/28 01:24:27;;;;;;;0.17;0.17;;;;;;;7.28;68.87;99643.88;5024173;28;20061;-86
2021/11/28 01:26:54;;;;;;;0.20;0.20;;;;;;;7.31;68.60;99648.19;5009198;28;20382;-85
2021/11/28 01:29:21;;;;;;;2.17;1.08;;;;;;;7.28;68.53;99652.63;5014389;28;20113;-86
2021/11/28 01:31:47;;;;;;;0.40;0.40;;;;;;;7.26;68.56;99649.19;5012546;28;20068;-85
2021/11/28 01:34:13;;;;;;;0.15;0.15;;;;;;;7.21;68.38;99656.31;5008044;28;20521;-85
2021/11/28 01:36:40;;;;;;;0.65;0.65;;;;;;;7.24;68.48;99658.91;5014107;28;20034;-85
2021/11/28 01:39:09;;;;;;;0.30;0.30;;;;;;;7.23;68.85;99651.03;5014677;28;20030;-85
2021/11/28 01:41:36;;;;;;;0.40;0.40;;;;;;;7.22;68.83;99655.41;5010718;28;20069;-85
2021/11/28 01:44:04;;;;;;;0.10;0.10;;;;;;;7.18;68.35;99660.78;5014420;28;20041;-85
2021/11/28 01:46:30;;;;;;;0.32;0.32;;;;;;;7.16;68.88;99665.25;5012628;28;20018;-85
2021/11/28 01:48:56;;;;;;;0.55;0.55;;;;;;;7.20;68.90;99666.91;5014406;28;20105;-85
2021/11/28 01:51:23;;;;;;;0.30;0.30;;;;;;;7.20;68.68;99666.91;5013826;28;20095;-85
2021/11/28 01:53:52;;;;;;;1.77;0.82;;;;;;;7.22;68.79;99665.97;5014657;28;20038;-85
2021/11/28 01:56:20;;;;;;;3.28;2.28;;;;;;;7.21;68.85;99656.31;5014250;28;20042;-85
2021/11/28 01:58:46;;;;;;;0.13;0.13;;;;;;;7.25;68.69;99670.28;5014045;28;20096;-85
2021/11/28 02:01:15;;;;;;;0.20;0.20;;;;;;;7.27;68.63;99668.47;5013783;28;20168;-86
2021/11/28 02:03:44;;;;;;;0.10;0.10;;;;;;;7.29;68.94;99671.97;5012263;28;20033;-85
2021/11/28 02:06:13;;;;;;;0.10;0.10;;;;;;;7.26;68.56;99688.72;5011923;28;20034;-84
2021/11/28 02:08:41;;;;;;;1.50;1.45;;;;;;;7.28;68.54;99684.25;5006249;28;20088;-85
2021/11/28 02:11:07;;;;;;;0.40;0.40;;;;;;;7.22;68.41;99694.09;5014074;28;20030;-85
2021/11/28 02:13:34;;;;;;;0.90;0.90;;;;;;;7.22;68.96;99687.03;5013074;28;20046;-85
2021/11/28 02:16:00;;;;;;;0.30;0.30;;;;;;;7.22;68.73;99694.09;5014086;28;20048;-86
2021/11/28 02:18:27;;;;;;;0.70;0.32;;;;;;;7.21;68.67;99689.72;5013598;28;20080;-85
2021/11/28 02:20:56;;;;;;;0.10;0.10;;;;;;;7.19;68.91;99702.94;5014197;28;20030;-85
2021/11/28 02:23:23;;;;;;;0.20;0.20;;;;;;;7.18;68.58;99700.31;5005656;28;20053;-85
2021/11/28 02:25:51;;;;;;;0.85;0.85;;;;;;;7.21;68.46;99700.25;5010422;28;20034;-85
2021/11/28 02:28:17;;;;;;;0.20;0.20;;;;;;;7.23;68.46;99690.56;5013100;28;20109;-84
2021/11/28 02:30:44;;;;;;;0.20;0.20;;;;;;;7.22;68.67;99699.34;5014090;28;20464;-84
2021/11/28 02:33:11;;;;;;;0.10;0.10;;;;;;;7.25;68.77;99694.00;5012956;28;20041;-85
2021/11/28 02:35:37;;;;;;;1.48;1.40;;;;;;;7.23;68.47;99704.56;5013928;28;20026;-84
2021/11/28 02:38:05;;;;;;;0.10;0.10;;;;;;;7.26;68.76;99706.28;5011994;28;20113;-85
2021/11/28 02:40:33;;;;;;;0.10;0.10;;;;;;;7.27;68.57;99700.09;5013751;28;20116;-84
2021/11/28 02:42:59;;;;;;;0.10;0.10;;;;;;;7.27;68.92;99708.84;5012004;28;20026;-84
2021/11/28 02:45:28;;;;;;;0.10;0.10;;;;;;;7.28;68.83;99701.84;5009918;28;20041;-84
2021/11/28 02:47:57;;;;;;;1.38;1.38;;;;;;;7.28;68.55;99712.38;5009569;28;20053;-84
2021/11/28 02:50:24;;;;;;;0.10;0.10;;;;;;;7.28;68.73;99717.66;5013109;28;20053;-84
2021/11/28 02:52:55;;;;;;;0.73;0.73;;;;;;;7.29;68.79;99714.97;5013160;28;20026;-84
2021/11/28 02:55:25;;;;;;;1.88;1.20;;;;;;;7.30;68.48;99721.09;5013509;28;20065;-84
2021/11/28 02:57:53;;;;;;;0.10;0.10;;;;;;;7.27;68.61;99721.19;5013376;28;20107;-85
2021/11/28 03:00:20;;;;;;;0.82;0.80;;;;;;;7.27;68.27;99726.44;5013460;28;20480;-85
2021/11/28 03:02:46;;;;;;;0.52;0.52;;;;;;;7.29;68.71;99724.66;5012752;28;20030;-85
2021/11/28 03:05:13;;;;;;;3.92;1.17;;;;;;;7.29;68.51;99729.94;5013068;28;20033;-85
2021/11/28 03:07:40;;;;;;;1.70;1.60;;;;;;;7.30;68.84;99734.25;5012922;28;20485;-84
2021/11/28 03:10:28;;;;;;;0.10;0.10;;;;;;;7.29;68.67;99740.47;5004814;28;20053;-85
2021/11/28 03:12:55;;;;;;;0.20;0.20;;;;;;;7.32;68.69;99736.88;5011480;28;20026;-85
2021/11/28 03:15:23;;;;;;;0.45;0.45;;;;;;;7.28;68.66;99733.47;5006437;28;20029;-85
2021/11/28 03:17:50;;;;;;;0.68;0.68;;;;;;;7.26;69.03;99735.25;5012533;28;20108;-85
2021/11/28 03:20:17;;;;;;;0.47;0.47;;;;;;;7.30;68.77;99723.72;5005866;28;20025;-85
2021/11/28 03:22:48;;;;;;;0.08;0.08;;;;;;;7.32;69.01;99729.84;5012532;28;20029;-84
2021/11/28 03:25:17;;;;;;;0.47;0.47;;;;;;;7.29;68.71;99725.50;5005404;28;20396;-84
2021/11/28 03:27:44;;;;;;;0.50;0.50;;;;;;;7.27;68.93;99731.72;5012351;28;20378;-85
2021/11/28 03:30:11;;;;;;;0.20;0.20;;;;;;;7.28;68.79;99730.81;5012300;28;20037;-85
2021/11/28 03:32:38;;;;;;;0.20;0.20;;;;;;;7.30;68.77;99726.34;5012753;28;20021;-85
2021/11/28 03:35:05;;;;;;;0.10;0.10;;;;;;;7.31;68.83;99720.19;5009755;28;20381;-85
2021/11/28 03:37:31;;;;;;;1.10;0.85;;;;;;;7.35;68.81;99720.97;5012625;28;20026;-85
2021/11/28 03:39:59;;;;;;;0.20;0.20;;;;;;;7.35;68.89;99724.50;5012083;28;20095;-85
2021/11/28 03:42:26;;;;;;;0.10;0.10;;;;;;;7.36;68.65;99725.34;5011541;28;20026;-85
2021/11/28 03:44:52;;;;;;;0.98;0.98;;;;;;;7.38;68.52;99723.56;5012052;28;20438;-85
2021/11/28 03:47:19;;;;;;;0.20;0.20;;;;;;;7.37;68.88;99727.94;5012679;28;20038;-85
2021/11/28 03:49:45;;;;;;;0.65;0.65;;;;;;;7.38;68.77;99727.03;5011757;28;20026;-85
2021/11/28 03:52:12;;;;;;;0.10;0.10;;;;;;;7.35;68.55;99729.78;5012515;28;20470;-85
2021/11/28 03:54:38;;;;;;;0.10;0.10;;;;;;;7.28;68.56;99725.56;5012053;28;20037;-85
2021/11/28 03:57:06;;;;;;;0.40;0.40;;;;;;;7.21;68.22;99723.97;5010268;28;20038;-85
2021/11/28 03:59:34;;;;;;;0.10;0.10;;;;;;;7.11;68.06;99725.94;5012358;28;20034;-84
2021/11/28 04:02:00;;;;;;;0.10;0.10;;;;;;;7.02;68.03;99734.94;5012414;28;20033;-84
2021/11/28 04:04:27;;;;;;;0.30;0.30;;;;;;;6.97;68.02;99742.06;5012159;28;20033;-85
2021/11/28 04:06:53;;;;;;;0.20;0.20;;;;;;;6.95;68.08;99731.59;5012059;28;20065;-85
2021/11/28 04:09:20;;;;;;;0.20;0.20;;;;;;;6.95;68.19;99730.69;5012069;28;20048;-84
2021/11/28 04:11:46;;;;;;;0.75;0.75;;;;;;;6.95;68.51;99738.59;5012107;28;20033;-85
2021/11/28 04:14:12;;;;;;;0.32;0.32;;;;;;;6.95;68.39;99730.69;5011742;28;20420;-84
2021/11/28 04:16:38;;;;;;;0.73;0.73;;;;;;;6.99;68.27;99739.41;5011901;28;20029;-85
2021/11/28 04:19:04;;;;;;;0.47;0.47;;;;;;;6.99;68.67;99734.13;5011458;28;20095;-86
2021/11/28 04:21:30;;;;;;;0.10;0.10;;;;;;;7.01;68.67;99738.47;5012181;28;20045;-84
2021/11/28 04:23:56;;;;;;;0.20;0.20;;;;;;;7.00;68.62;99736.72;5012667;28;20084;-85
2021/11/28 04:26:23;;;;;;;0.17;0.17;;;;;;;6.99;68.48;99736.75;5011828;28;20053;-85
2021/11/28 04:28:49;;;;;;;0.10;0.10;;;;;;;6.94;68.63;99739.50;5011683;28;20105;-85
2021/11/28 04:31:15;;;;;;;0.25;0.25;;;;;;;6.95;68.50;99743.88;5011932;28;20038;-84
2021/11/28 04:33:41;;;;;;;0.30;0.30;;;;;;;6.85;68.60;99737.94;5012389;28;20492;-85
2021/11/28 04:36:08;;;;;;;0.30;0.30;;;;;;;6.80;68.23;99737.19;5012694;28;20481;-85
2021/11/28 04:38:34;;;;;;;0.10;0.10;;;;;;;6.69;68.13;99729.53;5012014;28;20034;-85
2021/11/28 04:41:01;;;;;;;0.10;0.10;;;;;;;6.62;68.07;99734.06;5011973;28;20056;-85
2021/11/28 04:43:27;;;;;;;0.10;0.10;;;;;;;6.53;68.31;99738.66;5011852;28;20030;-85
2021/11/28 04:45:53;;;;;;;0.10;0.10;;;;;;;6.49;67.81;99732.56;5009994;28;20117;-84
2021/11/28 04:48:19;;;;;;;0.45;0.45;;;;;;;6.38;68.46;99742.47;5012017;28;20061;-84
2021/11/28 04:50:45;;;;;;;0.10;0.10;;;;;;;6.34;67.93;99744.28;5011209;28;20034;-84
2021/11/28 04:53:11;;;;;;;0.10;0.10;;;;;;;6.26;68.15;99746.22;5012001;28;20044;-85
2021/11/28 04:55:38;;;;;;;0.10;0.10;;;;;;;6.23;67.99;99749.78;5007504;28;20034;-84
2021/11/28 04:58:04;;;;;;;0.38;0.38;;;;;;;6.18;67.79;99758.66;5010970;28;20044;-84
2021/11/28 05:00:30;;;;;;;0.10;0.10;;;;;;;6.06;68.48;99757.13;5012317;28;20108;-84
2021/11/28 05:02:57;;;;;;;0.20;0.20;;;;;;;6.05;68.19;99763.28;5015862;28;20072;-84
2021/11/28 05:05:25;;;;;;;0.10;0.10;;;;;;;6.02;67.86;99758.94;5013507;28;20072;-85
2021/11/28 05:07:53;;;;;;;0.20;0.20;;;;;;;5.96;67.76;99761.66;5015411;28;20489;-84
2021/11/28 05:10:19;;;;;;;0.10;0.10;;;;;;;5.92;67.63;99762.59;5015099;28;20048;-84
2021/11/28 05:12:46;;;;;;;0.10;0.10;;;;;;;5.88;67.77;99766.19;5015487;28;20038;-84
2021/11/28 05:15:12;;;;;;;0.65;0.65;;;;;;;5.83;67.90;99758.38;5014530;28;20037;-84
2021/11/28 05:17:38;;;;;;;0.20;0.20;;;;;;;5.79;68.08;99773.31;5014974;28;20113;-84
2021/11/28 05:20:05;;;;;;;0.20;0.20;;;;;;;5.76;67.96;99778.66;5011826;28;20038;-84
2021/11/28 05:22:32;;;;;;;0.13;0.13;;;;;;;5.73;67.92;99772.56;5014659;28;20101;-84
2021/11/28 05:25:02;;;;;;;1.35;1.35;;;;;;;5.71;67.97;99774.34;5015086;28;20038;-85
2021/11/28 05:27:28;;;;;;;0.10;0.10;;;;;;;5.65;68.12;99783.22;5014488;28;20461;-85
2021/11/28 05:29:54;;;;;;;1.00;1.00;;;;;;;5.61;67.98;99786.81;5015068;28;20030;-84
2021/11/28 05:32:21;;;;;;;1.42;1.40;;;;;;;5.59;68.10;99778.94;5014656;28;20038;-84
2021/11/28 05:34:47;;;;;;;0.20;0.20;;;;;;;5.56;68.17;99786.88;5014910;28;20554;-84
2021/11/28 05:37:15;;;;;;;0.10;0.10;;;;;;;5.55;68.22;99789.53;5014521;28;20037;-84
2021/11/28 05:39:42;;;;;;;1.75;0.95;;;;;;;5.54;67.77;99780.75;5013347;28;20040;-84
2021/11/28 05:42:08;;;;;;;0.15;0.15;;;;;;;5.53;67.96;99788.69;5014746;28;20026;-84
2021/11/28 05:44:34;;;;;;;1.10;1.10;;;;;;;5.49;67.93;99786.09;5014461;28;20076;-84
2021/11/28 05:47:00;;;;;;;0.65;0.65;;;;;;;5.45;67.91;99797.56;5014743;28;20034;-84
2021/11/28 05:49:27;;;;;;;0.10;0.10;;;;;;;5.44;67.62;99797.59;5014925;28;20393;-84
2021/11/28 05:51:53;;;;;;;0.52;0.52;;;;;;;5.41;67.69;99803.75;5009982;28;20038;-83
2021/11/28 05:54:19;;;;;;;0.20;0.20;;;;;;;5.41;67.73;99798.50;5005730;28;20041;-84
2021/11/28 05:56:46;;;;;;;0.20;0.20;;;;;;;5.38;67.54;99795.06;5013169;28;20481;-83
2021/11/28 05:59:13;;;;;;;1.30;1.20;;;;;;;5.37;67.46;99802.06;5014330;28;20389;-84
2021/11/28 06:01:39;;;;;;;0.10;0.10;;;;;;;5.34;67.78;99802.09;5014281;28;20035;-84
2021/11/28 06:04:05;;;;;;;0.10;0.10;;;;;;;5.35;67.84;99803.84;5014427;28;20033;-84
2021/11/28 06:06:31;;;;;;;0.52;0.52;;;;;;;5.34;68.16;99810.00;5014037;28;20139;-84
2021/11/28 06:08:58;;;;;;;0.10;0.10;;;;;;;5.37;67.97;99811.69;5013137;28;20077;-84
2021/11/28 06:11:24;;;;;;;0.20;0.20;;;;;;;5.35;68.01;99820.47;5014504;28;20378;-84
2021/11/28 06:13:50;;;;;;;0.30;0.30;;;;;;;5.33;68.08;99817.00;5010944;28;20041;-84
2021/11/28 06:16:16;;;;;;;0.80;0.80;;;;;;;5.32;68.12;99820.53;5013748;28;20603;-84
2021/11/28 06:18:43;;;;;;;0.10;0.10;;;;;;;5.30;68.10;99819.66;5014085;28;20072;-84
2021/11/28 06:21:09;;;;;;;0.20;0.20;;;;;;;5.29;67.69;99824.94;5014316;28;20073;-84
2021/11/28 06:23:35;;;;;;;0.20;0.20;;;;;;;5.26;67.83;99819.72;5011232;28;20089;-85
2021/11/28 06:26:02;;;;;;;0.15;0.15;;;;;;;5.26;67.96;99822.34;5013499;28;20026;-84
2021/11/28 06:28:28;;;;;;;0.20;0.20;;;;;;;5.26;67.90;99820.63;5014112;28;20048;-84
2021/11/28 06:30:54;;;;;;;0.38;0.38;;;;;;;5.28;68.42;99825.84;5013760;28;20105;-84
2021/11/28 06:33:20;;;;;;;0.20;0.20;;;;;;;5.28;68.20;99829.34;5012634;28;20559;-84
2021/11/28 06:35:47;;;;;;;0.10;0.10;;;;;;;5.28;68.05;99829.34;5011227;28;20022;-85
2021/11/28 06:38:13;;;;;;;0.25;0.25;;;;;;;5.28;67.79;99838.97;5013483;28;20468;-84
2021/11/28 06:40:39;;;;;;;0.25;0.25;;;;;;;5.27;68.50;99840.75;5014034;28;20478;-84
2021/11/28 06:43:07;;;;;;;0.20;0.20;;;;;;;5.29;67.94;99841.56;5013274;28;20038;-84
2021/11/28 06:45:34;;;;;;;0.15;0.15;;;;;;;5.27;68.20;99835.50;5013412;28;20113;-84
2021/11/28 06:48:00;;;;;;;0.20;0.20;;;;;;;5.25;68.48;99852.16;5013384;28;20038;-84
2021/11/28 06:50:26;;;;;;;0.10;0.10;;;;;;;5.25;68.03;99849.53;5014015;28;20073;-84
2021/11/28 06:52:52;;;;;;;0.10;0.10;;;;;;;5.24;68.11;99853.03;5013082;28;20030;-84
2021/11/28 06:55:19;;;;;;;0.20;0.20;;;;;;;5.24;68.03;99866.19;5013121;28;20037;-83
2021/11/28 06:57:45;;;;;;;0.20;0.20;;;;;;;5.26;68.27;99861.75;5009622;28;20030;-84
2021/11/28 07:00:12;;;;;;;0.38;0.38;;;;;;;5.28;68.37;99854.72;5008532;28;20037;-84
2021/11/28 07:02:38;;;;;;;0.10;0.10;;;;;;;5.29;68.27;99864.34;5011897;28;20396;-84
2021/11/28 07:05:04;;;;;;;0.15;0.15;;;;;;;5.30;68.30;99868.72;5013414;28;20037;-84
2021/11/28 07:07:30;;;;;;;0.15;0.15;;;;;;;5.31;68.31;99870.47;5013364;28;20095;-84
2021/11/28 07:09:57;;;;;;;0.10;0.10;;;;;;;5.31;68.29;99871.31;5011205;28;20378;-84
2021/11/28 07:12:23;;;;;;;0.40;0.40;;;;;;;5.33;68.30;99873.91;5013001;28;20038;-83
2021/11/28 07:14:50;;;;;;;1.27;1.27;;;;;;;5.32;68.33;99875.69;5012794;28;20149;-84
2021/11/28 07:17:17;;;;;;;0.10;0.10;;;;;;;5.31;68.51;99881.81;5012693;28;20033;-83
2021/11/28 07:19:44;;;;;;;0.20;0.20;;;;;;;5.29;68.33;99883.59;5013299;28;20026;-84
2021/11/28 07:22:10;;;;;;;0.30;0.30;;;;;;;5.30;68.19;99892.34;5012863;28;20111;-84
2021/11/28 07:24:36;;;;;;;0.10;0.10;;;;;;;5.31;68.39;99892.31;5011237;28;20041;-84
2021/11/28 07:27:02;;;;;;;0.10;0.10;;;;;;;5.34;67.98;99891.41;5009024;28;20559;-84
2021/11/28 07:29:29;;;;;;;0.10;0.10;;;;;;;5.38;68.47;99895.72;5012925;28;20048;-84
2021/11/28 07:31:55;;;;;;;0.35;0.35;;;;;;;5.44;68.54;99900.91;5012846;28;20516;-84
2021/11/28 07:34:21;;;;;;;1.10;1.10;;;;;;;5.54;68.44;99903.41;5012234;28;20401;-84
2021/11/28 07:36:47;;;;;;;0.10;0.10;;;;;;;5.57;69.05;99898.97;5008529;28;20065;-85
2021/11/28 07:39:13;;;;;;;0.10;0.10;;;;;;;5.67;68.62;99899.72;5012834;28;20038;-84
2021/11/28 07:41:40;;;;;;;0.10;0.10;;;;;;;5.71;68.83;99896.13;5012428;28;20058;-84
2021/11/28 07:44:07;;;;;;;0.80;0.65;;;;;;;5.75;69.15;99908.34;5012292;28;20038;-84
2021/11/28 07:46:33;;;;;;;1.35;1.17;;;;;;;5.81;69.00;99913.50;5006748;28;20033;-84
2021/11/28 07:48:59;;;;;;;0.17;0.17;;;;;;;5.89;69.03;99912.50;5002552;28;20026;-84
2021/11/28 07:51:26;;;;;;;2.08;1.95;;;;;;;5.96;69.43;99916.78;5009815;28;20034;-85
2021/11/28 07:53:52;;;;;;;0.20;0.20;;;;;;;6.06;69.25;99918.41;5011936;28;20041;-84
2021/11/28 07:56:22;;;;;;;6.03;1.17;;;;;;;6.17;69.37;99919.97;5012578;28;20049;-84
2021/11/28 07:58:49;;;;;;;0.10;0.10;;;;;;;6.27;69.46;99921.59;5010216;28;20026;-84
2021/11/28 08:01:15;;;;;;;0.20;0.20;;;;;;;6.37;69.72;99931.03;5008342;28;20041;-85
2021/11/28 08:03:41;;;;;;;0.40;0.40;;;;;;;6.48;69.74;99941.38;4999114;28;20167;-85
2021/11/28 08:06:08;;;;;;;0.10;0.10;;;;;;;6.55;69.77;99937.72;5008582;28;20147;-84
2021/11/28 08:08:35;;;;;;;4.35;0.95;;;;;;;6.62;69.71;99944.63;5010619;28;20473;-84
2021/11/28 08:11:02;;;;;;;0.57;0.57;;;;;;;6.63;69.38;99945.50;5010055;28;20056;-84
2021/11/28 08:13:28;;;;;;;0.40;0.40;;;;;;;6.68;69.43;99956.81;5009236;28;20034;-84
2021/11/28 08:15:55;;;;;;;0.20;0.20;;;;;;;6.72;69.47;99960.25;5006287;28;20073;-83
2021/11/28 08:18:21;;;;;;;0.10;0.10;;;;;;;6.73;69.54;99957.59;5010307;28;20106;-83
2021/11/28 08:20:47;;;;;;;0.20;0.20;;;;;;;6.75;69.32;99953.19;5011534;28;20030;-83
2021/11/28 08:23:13;;;;;;;0.10;0.10;;;;;;;6.76;69.04;99970.69;5011538;28;20109;-84
2021/11/28 08:25:44;;;;;;;0.20;0.20;;;;;;;6.80;68.99;99964.50;5032514;22;20045;-91
2021/11/28 08:28:11;;;;;;;0.20;0.20;;;;;;;6.82;69.29;99971.47;5050444;28;20033;-90
2021/11/28 08:30:38;;;;;;;0.20;0.20;;;;;;;6.80;68.82;99975.03;5055693;28;20075;-91
2021/11/28 08:33:06;;;;;;;0.80;0.80;;;;;;;6.82;69.04;99980.25;5056901;28;20074;-91
2021/11/28 08:35:33;;;;;;;0.10;0.10;;;;;;;6.85;69.05;99979.31;5057744;28;20029;-93
2021/11/28 08:38:00;;;;;;;0.52;0.52;;;;;;;6.88;69.34;99987.16;5060050;28;20065;-91
2021/11/28 08:40:27;;;;;;;2.15;1.95;;;;;;;6.90;69.03;99973.09;5058976;28;20499;-90
2021/11/28 08:42:53;;;;;;;0.10;0.10;;;;;;;6.97;69.63;99976.47;5057331;28;20072;-91
2021/11/28 08:45:19;;;;;;;0.10;0.10;;;;;;;7.01;69.55;99972.88;5058766;28;20139;-91
2021/11/28 08:47:47;;;;;;;0.10;0.10;;;;;;;7.09;69.58;99981.50;5062200;28;20024;-89
2021/11/28 08:50:14;;;;;;;0.10;0.10;;;;;;;7.16;69.89;99984.00;5065797;28;20028;-90
2021/11/28 08:52:43;;;;;;;0.20;0.20;;;;;;;7.18;69.23;99979.56;5059758;28;20063;-90
2021/11/28 08:55:09;;;;;;;0.10;0.10;;;;;;;7.21;69.28;99987.41;5058111;28;20041;-89
2021/11/28 08:57:35;;;;;;;0.13;0.13;;;;;;;7.24;69.06;99989.97;5055772;28;20051;-91
2021/11/28 09:00:04;;;;;;;0.20;0.20;;;;;;;7.21;68.92;99995.31;5069462;28;20106;-91
2021/11/28 09:02:30;;;;;;;0.17;0.17;;;;;;;7.20;69.33;99991.84;5058832;28;20036;-90
2021/11/28 09:04:57;;;;;;;0.40;0.40;;;;;;;7.18;69.05;100001.53;5058226;28;20472;-87
2021/11/28 09:07:24;;;;;;;0.10;0.10;;;;;;;7.12;68.59;99991.97;5047180;28;20040;-90
2021/11/28 09:09:50;;;;;;;0.10;0.10;;;;;;;7.08;68.70;100000.81;5051085;28;20112;-88
2021/11/28 09:12:16;;;;;;;0.10;0.10;;;;;;;7.13;68.88;100003.38;5053181;28;20025;-90
2021/11/28 09:14:42;;;;;;;6.55;1.45;;;;;;;7.10;69.09;99993.78;5055027;28;20044;-90
2021/11/28 09:17:09;;;;;;;0.10;0.10;;;;;;;7.14;69.18;100005.13;5055697;28;20033;-91
2021/11/28 09:19:45;;;;;;;0.20;0.20;;;;;;;7.11;68.92;100021.81;5051907;28;20062;-88
2021/11/28 09:22:20;;;;;;;0.10;0.10;;;;;;;7.10;68.86;100004.31;5055179;28;20029;-90
2021/11/28 09:24:47;;;;;;;0.20;0.20;;;;;;;7.10;68.70;100020.13;5054778;28;20041;-90
2021/11/28 09:27:14;;;;;;;0.10;0.10;;;;;;;7.07;68.73;100014.03;5055668;28;20036;-90
2021/11/28 09:29:45;;;;;;;0.10;0.10;;;;;;;7.06;68.88;100023.69;5052688;28;20052;-90
2021/11/28 09:32:13;;;;;;;1.13;1.10;;;;;;;7.09;69.51;100023.66;5058371;28;20476;-90
2021/11/28 09:34:40;;;;;;;0.10;0.10;;;;;;;7.04;69.04;100024.63;5055451;28;20052;-90
2021/11/28 09:37:08;;;;;;;0.20;0.20;;;;;;;7.04;69.47;100030.78;5057869;28;20107;-90
2021/11/28 09:39:36;;;;;;;0.10;0.10;;;;;;;6.98;69.05;100030.88;5057075;28;20476;-91
2021/11/28 09:42:05;;;;;;;0.10;0.10;;;;;;;6.94;68.97;100039.72;5055590;28;20116;-82
2021/11/28 09:44:34;;;;;;;0.10;0.10;;;;;;;6.87;69.06;100038.97;5057529;28;20029;-90
2021/11/28 09:47:01;;;;;;;0.10;0.10;;;;;;;6.75;68.71;100040.06;5052383;28;20048;-89
2021/11/28 09:49:29;;;;;;;0.10;0.10;;;;;;;6.82;69.23;100045.19;5055185;28;20033;-91
2021/11/28 09:52:05;;;;;;;0.10;0.10;;;;;;;6.79;69.00;100046.13;5055808;28;20082;-88
2021/11/28 09:54:35;;;;;;;0.10;0.10;;;;;;;6.76;68.77;100043.56;5065377;28;20029;-89
2021/11/28 09:57:02;;;;;;;0.17;0.17;;;;;;;6.74;68.98;100040.94;5045714;22;20045;-84
2021/11/28 09:59:29;;;;;;;0.10;0.10;;;;;;;6.56;68.78;100038.63;5033977;28;20469;-85
2021/11/28 10:02:01;;;;;;;0.10;0.10;;;;;;;6.53;68.71;100050.06;5029865;28;20481;-85
2021/11/28 10:04:27;;;;;;;0.10;0.10;;;;;;;6.47;69.04;100044.91;5025465;28;20489;-85
2021/11/28 10:06:59;;;;;;;0.10;0.10;;;;;;;6.45;69.06;100042.28;5009892;28;20014;-85
2021/11/28 10:09:26;;;;;;;0.10;0.10;;;;;;;6.49;68.94;100051.00;5006568;28;20045;-83
2021/11/28 10:15:05;;;;;;;0.20;0.20;;;;;;;6.44;69.09;100050.19;5073350;27;20444;-84
2021/11/28 10:17:34;;;;;;;0.10;0.10;;;;;;;6.49;68.86;100043.09;5053647;28;20021;-84
2021/11/28 10:20:03;;;;;;;0.10;0.10;;;;;;;6.47;69.16;100040.50;5054506;28;20047;-84
2021/11/28 10:22:30;;;;;;;0.10;0.10;;;;;;;6.50;69.40;100044.00;5052264;28;20056;-85
2021/11/28 10:25:16;;;;;;;0.20;0.20;;;;;;;6.55;68.95;100042.16;5057173;28;20111;-84
2021/11/28 10:27:45;;;;;;;0.10;0.10;;;;;;;6.56;69.12;100038.63;5060660;28;20036;-84
2021/11/28 10:30:16;;;;;;;0.10;0.10;;;;;;;6.57;69.43;100041.22;5056758;28;20116;-85
2021/11/28 10:32:49;;;;;;;0.10;0.10;;;;;;;6.62;69.02;100033.25;5058183;28;20024;-85
2021/11/28 10:35:17;;;;;;;0.10;0.10;;;;;;;6.58;69.15;100035.06;5055526;28;20033;-85
2021/11/28 10:37:46;;;;;;;0.10;0.10;;;;;;;6.64;69.02;100029.72;5055415;28;20033;-85
2021/11/28 10:40:20;;;;;;;0.10;0.10;;;;;;;6.74;69.20;100025.16;5052838;28;20519;-85
2021/11/28 10:42:50;;;;;;;0.10;0.10;;;;;;;6.75;69.13;100015.47;5055383;28;20041;-85
2021/11/28 10:45:19;;;;;;;0.10;0.10;;;;;;;6.82;69.03;100019.75;5055815;28;20029;-89
2021/11/28 10:47:48;;;;;;;0.10;0.10;;;;;;;6.86;69.02;100020.56;5050227;28;20071;-84
2021/11/28 10:50:28;;;;;;;0.13;0.13;;;;;;;6.95;69.00;100021.28;5049795;28;20021;-84
2021/11/28 10:55:52;;;;;;;0.10;0.10;;;;;;;7.00;68.97;100034.34;5058944;28;20415;-83
2021/11/28 10:58:25;;;;;;;0.20;0.20;;;;;;;6.97;68.78;100037.03;5048880;28;20025;-84
2021/11/28 11:03:36;;;;;;;0.10;0.10;;;;;;;7.01;68.64;100030.81;5070712;27;20999;-85
2021/11/28 11:09:21;;;;;;;0.50;0.50;;;;;;;7.16;68.93;100034.06;5072834;27;20442;-85
2021/11/28 11:11:50;;;;;;;0.10;0.10;;;;;;;7.12;69.19;100026.19;5066837;28;20674;-85
2021/11/28 11:14:16;;;;;;;0.10;0.10;;;;;;;7.17;68.85;100030.53;5066754;28;20040;-85
2021/11/28 11:16:45;;;;;;;0.10;0.10;;;;;;;7.19;68.72;100024.34;5054076;28;20030;-85
2021/11/28 11:19:35;;;;;;;0.10;0.10;;;;;;;7.24;68.36;100021.59;5047003;28;20048;-85
2021/11/28 11:22:18;;;;;;;0.10;0.10;;;;;;;7.26;68.36;100031.22;5044247;28;20045;-83
2021/11/28 11:24:56;;;;;;;0.10;0.10;;;;;;;7.26;68.82;100031.22;5038752;28;20029;-86
2021/11/28 11:27:35;;;;;;;0.10;0.10;;;;;;;7.33;68.78;100033.72;5075629;22;20068;-93
2021/11/28 11:30:06;;;;;;;0.10;0.10;;;;;;;7.29;68.52;100038.22;5068169;28;20029;-95
2021/11/28 11:33:01;;;;;;;0.10;0.10;;;;;;;7.34;68.24;100043.38;5083195;28;20029;-95
2021/11/28 11:35:30;;;;;;;0.20;0.20;;;;;;;7.32;68.65;100040.78;5073807;28;20345;-88
2021/11/28 11:38:07;;;;;;;0.15;0.15;;;;;;;7.32;68.25;100046.03;5073980;28;20078;-93
2021/11/28 11:40:34;;;;;;;0.10;0.10;;;;;;;7.33;68.99;100058.31;5075277;28;20025;-90
2021/11/28 11:43:00;;;;;;;0.10;0.10;;;;;;;7.24;68.40;100061.13;5069759;28;20032;-92
2021/11/28 11:45:30;;;;;;;0.20;0.20;;;;;;;7.20;67.90;100048.91;5074320;28;20444;-86
2021/11/28 11:47:56;;;;;;;0.10;0.10;;;;;;;7.27;68.26;100058.44;5067999;28;20479;-94
2021/11/28 11:50:26;;;;;;;0.10;0.10;;;;;;;7.31;68.20;100056.63;5065922;28;20043;-94
2021/11/28 11:52:53;;;;;;;0.10;0.10;;;;;;;7.32;68.00;100059.22;5066200;28;20028;-94
2021/11/28 11:58:32;;;;;;;0.10;0.10;;;;;;;7.35;68.08;100051.28;5066782;27;20437;-89
2021/11/28 12:01:11;;;;;;;0.10;0.10;;;;;;;7.27;68.26;100050.53;5046339;28;20057;-93
2021/11/28 12:03:49;;;;;;;0.10;0.10;;;;;;;7.32;68.03;100046.03;5046100;28;20464;-90